sensor_id;sensor_type;location;lat;lon;timestamp;temperature;humidity
14016;DHT22;7083;48.854;9.158;2023-03-05T00:00:07;2.60;99.90
14016;DHT22;7083;48.854;9.158;2023-03-05T00:02:34;2.60;99.90
14016;DHT22;7083;48.854;9.158;2023-03-05T00:05:01;2.60;99.90
14016;DHT22;7083;48.854;9.158;2023-03-05T00:07:29;2.50;99.90
14016;DHT22;7083;48.854;9.158;2023-03-05T00:09:58;2.70;99.90
14016;DHT22;7083;48.854;9.158;2023-03-05T00:12:25;2.60;99.90
14016;DHT22;7083;48.854;9.158;2023-03-05T00:14:51;2.70;99.90
14016;DHT22;7083;48.854;9.158;2023-03-05T00:17:18;2.60;99.90
14016;DHT22;7083;48.854;9.158;2023-03-05T00:19:45;2.80;99.90
14016;DHT22;7083;48.854;9.158;2023-03-05T00:22:12;2.70;99.90
14016;DHT22;7083;48.854;9.158;2023-03-05T00:24:40;2.70;99.90
14016;DHT22;7083;48.854;9.158;2023-03-05T00:27:06;2.80;99.90
14016;DHT22;7083;48.854;9.158;2023-03-05T00:29:33;2.80;99.90
14016;DHT22;7083;48.854;9.158;2023-03-05T00:32:00;2.80;99.90
14016;DHT22;7083;48.854;9.158;2023-03-05T00:34:27;2.70;99.90
14016;DHT22;7083;48.854;9.158;2023-03-05T00:36:54;3.40;99.90
14016;DHT22;7083;48.854;9.158;2023-03-05T00:39:21;4.20;99.90
14016;DHT22;7083;48.854;9.158;2023-03-05T00:41:49;2.80;99.90
14016;DHT22;7083;48.854;9.158;2023-03-05T00:44:16;2.70;99.90
14016;DHT22;7083;48.854;9.158;2023-03-05T00:46:42;2.80;99.90
14016;DHT22;7083;48.854;9.158;2023-03-05T00:49:09;2.80;99.90
14016;DHT22;7083;48.854;9.158;2023-03-05T00:51:36;2.80;99.90
14016;DHT22;7083;48.854;9.158;2023-03-05T00:54:03;2.80;99.90
14016;DHT22;7083;48.854;9.158;2023-03-05T00:56:30;2.80;99.90
14016;DHT22;7083;48.854;9.158;2023-03-05T00:58:58;2.80;99.90
14016;DHT22;7083;48.854;9.158;2023-03-05T01:01:25;2.80;99.90
14016;DHT22;7083;48.854;9.158;2023-03-05T01:03:52;2.80;99.90
14016;DHT22;7083;48.854;9.158;2023-03-05T01:06:21;2.80;99.90
14016;DHT22;7083;48.854;9.158;2023-03-05T01:08:47;2.90;99.90
14016;DHT22;7083;48.854;9.158;2023-03-05T01:11:14;2.80;99.90
14016;DHT22;7083;48.854;9.158;2023-03-05T01:13:41;2.90;99.90
14016;DHT22;7083;48.854;9.158;2023-03-05T01:16:09;2.90;99.90
14016;DHT22;7083;48.854;9.158;2023-03-05T01:18:36;2.90;99.90
14016;DHT22;7083;48.854;9.158;2023-03-05T01:21:06;2.90;99.90
14016;DHT22;7083;48.854;9.158;2023-03-05T01:23:33;2.90;99.90
14016;DHT22;7083;48.854;9.158;2023-03-05T01:26:03;3.00;99.90
14016;DHT22;7083;48.854;9.158;2023-03-05T01:28:30;3.00;99.90
14016;DHT22;7083;48.854;9.158;2023-03-05T01:30:57;3.00;99.90
14016;DHT22;7083;48.854;9.158;2023-03-05T01:33:25;3.00;99.90
14016;DHT22;7083;48.854;9.158;2023-03-05T01:35:51;3.00;99.90
14016;DHT22;7083;48.854;9.158;2023-03-05T01:38:18;3.00;99.90
14016;DHT22;7083;48.854;9.158;2023-03-05T01:40:45;3.10;99.90
14016;DHT22;7083;48.854;9.158;2023-03-05T01:43:22;3.10;99.90
14016;DHT22;7083;48.854;9.158;2023-03-05T01:46:28;3.00;99.90
14016;DHT22;7083;48.854;9.158;2023-03-05T01:49:03;3.00;99.90
14016;DHT22;7083;48.854;9.158;2023-03-05T01:51:34;3.00;99.90
14016;DHT22;7083;48.854;9.158;2023-03-05T01:54:02;3.00;99.90
14016;DHT22;7083;48.854;9.158;2023-03-05T01:56:31;3.00;99.90
14016;DHT22;7083;48.854;9.158;2023-03-05T01:58:59;3.00;99.90
14016;DHT22;7083;48.854;9.158;2023-03-05T02:01:33;3.00;99.90
14016;DHT22;7083;48.854;9.158;2023-03-05T02:04:03;3.00;99.90
14016;DHT22;7083;48.854;9.158;2023-03-05T02:06:30;3.00;99.90
14016;DHT22;7083;48.854;9.158;2023-03-05T02:08:58;3.00;99.90
14016;DHT22;7083;48.854;9.158;2023-03-05T02:11:25;3.00;99.90
14016;DHT22;7083;48.854;9.158;2023-03-05T02:13:52;3.00;99.90
14016;DHT22;7083;48.854;9.158;2023-03-05T02:16:19;3.00;99.90
14016;DHT22;7083;48.854;9.158;2023-03-05T02:18:49;3.00;99.90
14016;DHT22;7083;48.854;9.158;2023-03-05T02:21:26;3.00;99.90
14016;DHT22;7083;48.854;9.158;2023-03-05T02:23:54;3.00;99.90
14016;DHT22;7083;48.854;9.158;2023-03-05T02:26:21;3.00;99.90
14016;DHT22;7083;48.854;9.158;2023-03-05T02:28:54;3.00;99.90
14016;DHT22;7083;48.854;9.158;2023-03-05T02:31:23;3.00;99.90
14016;DHT22;7083;48.854;9.158;2023-03-05T02:33:52;3.00;99.90
14016;DHT22;7083;48.854;9.158;2023-03-05T02:36:22;3.00;99.90
14016;DHT22;7083;48.854;9.158;2023-03-05T02:38:49;3.00;99.90
14016;DHT22;7083;48.854;9.158;2023-03-05T02:41:17;3.00;99.90
14016;DHT22;7083;48.854;9.158;2023-03-05T02:43:44;3.00;99.90
14016;DHT22;7083;48.854;9.158;2023-03-05T02:46:17;3.00;99.90
14016;DHT22;7083;48.854;9.158;2023-03-05T02:48:44;3.00;99.90
14016;DHT22;7083;48.854;9.158;2023-03-05T02:51:11;2.90;99.90
14016;DHT22;7083;48.854;9.158;2023-03-05T02:53:39;3.10;99.90
14016;DHT22;7083;48.854;9.158;2023-03-05T02:56:06;3.10;99.90
14016;DHT22;7083;48.854;9.158;2023-03-05T02:58:33;3.10;99.90
14016;DHT22;7083;48.854;9.158;2023-03-05T03:00:59;3.10;99.90
14016;DHT22;7083;48.854;9.158;2023-03-05T03:03:26;3.10;99.90
14016;DHT22;7083;48.854;9.158;2023-03-05T03:05:53;3.20;99.90
14016;DHT22;7083;48.854;9.158;2023-03-05T03:08:19;3.20;99.90
14016;DHT22;7083;48.854;9.158;2023-03-05T03:10:48;3.20;99.90
14016;DHT22;7083;48.854;9.158;2023-03-05T03:13:14;3.20;99.90
14016;DHT22;7083;48.854;9.158;2023-03-05T03:15:41;3.20;99.90
14016;DHT22;7083;48.854;9.158;2023-03-05T03:18:08;3.20;99.90
14016;DHT22;7083;48.854;9.158;2023-03-05T03:20:36;3.30;99.90
14016;DHT22;7083;48.854;9.158;2023-03-05T03:23:04;3.30;99.90
14016;DHT22;7083;48.854;9.158;2023-03-05T03:25:31;3.20;99.90
14016;DHT22;7083;48.854;9.158;2023-03-05T03:27:59;3.20;99.90
14016;DHT22;7083;48.854;9.158;2023-03-05T03:30:26;3.20;99.90
14016;DHT22;7083;48.854;9.158;2023-03-05T03:32:52;3.20;99.90
14016;DHT22;7083;48.854;9.158;2023-03-05T03:35:19;3.30;99.90
14016;DHT22;7083;48.854;9.158;2023-03-05T03:37:46;3.30;99.90
14016;DHT22;7083;48.854;9.158;2023-03-05T03:40:13;3.30;99.90
14016;DHT22;7083;48.854;9.158;2023-03-05T03:42:40;3.60;99.90
14016;DHT22;7083;48.854;9.158;2023-03-05T03:45:09;3.30;99.90
14016;DHT22;7083;48.854;9.158;2023-03-05T03:47:36;3.30;99.90
14016;DHT22;7083;48.854;9.158;2023-03-05T03:50:03;3.30;99.90
14016;DHT22;7083;48.854;9.158;2023-03-05T03:52:30;3.30;99.90
14016;DHT22;7083;48.854;9.158;2023-03-05T03:54:56;3.30;99.90
14016;DHT22;7083;48.854;9.158;2023-03-05T03:57:26;3.40;99.90
14016;DHT22;7083;48.854;9.158;2023-03-05T03:59:54;3.30;99.90
14016;DHT22;7083;48.854;9.158;2023-03-05T04:02:22;3.30;99.90
14016;DHT22;7083;48.854;9.158;2023-03-05T04:04:48;3.30;99.90
14016;DHT22;7083;48.854;9.158;2023-03-05T04:07:15;3.30;99.90
14016;DHT22;7083;48.854;9.158;2023-03-05T04:09:42;3.30;99.90
14016;DHT22;7083;48.854;9.158;2023-03-05T04:12:09;3.30;99.90
14016;DHT22;7083;48.854;9.158;2023-03-05T04:14:35;3.30;99.90
14016;DHT22;7083;48.854;9.158;2023-03-05T04:17:02;3.30;99.90
14016;DHT22;7083;48.854;9.158;2023-03-05T04:19:30;3.30;99.90
14016;DHT22;7083;48.854;9.158;2023-03-05T04:21:57;3.30;99.90
14016;DHT22;7083;48.854;9.158;2023-03-05T04:24:24;3.30;99.90
14016;DHT22;7083;48.854;9.158;2023-03-05T04:26:50;3.30;99.90
14016;DHT22;7083;48.854;9.158;2023-03-05T04:29:17;3.20;99.90
14016;DHT22;7083;48.854;9.158;2023-03-05T04:31:44;3.20;99.90
14016;DHT22;7083;48.854;9.158;2023-03-05T04:34:11;3.20;99.90
14016;DHT22;7083;48.854;9.158;2023-03-05T04:36:39;3.20;99.90
14016;DHT22;7083;48.854;9.158;2023-03-05T04:39:05;3.20;99.90
14016;DHT22;7083;48.854;9.158;2023-03-05T04:41:32;3.20;99.90
14016;DHT22;7083;48.854;9.158;2023-03-05T04:43:59;3.30;99.90
14016;DHT22;7083;48.854;9.158;2023-03-05T04:46:25;3.30;99.90
14016;DHT22;7083;48.854;9.158;2023-03-05T04:48:53;3.30;99.90
14016;DHT22;7083;48.854;9.158;2023-03-05T04:51:20;3.20;99.90
14016;DHT22;7083;48.854;9.158;2023-03-05T04:53:48;3.20;99.90
14016;DHT22;7083;48.854;9.158;2023-03-05T04:56:15;3.20;99.90
14016;DHT22;7083;48.854;9.158;2023-03-05T04:58:42;3.20;99.90
14016;DHT22;7083;48.854;9.158;2023-03-05T05:01:09;3.20;99.90
14016;DHT22;7083;48.854;9.158;2023-03-05T05:03:36;3.20;99.90
14016;DHT22;7083;48.854;9.158;2023-03-05T05:06:03;3.20;99.90
14016;DHT22;7083;48.854;9.158;2023-03-05T05:08:30;3.20;99.90
14016;DHT22;7083;48.854;9.158;2023-03-05T05:11:00;3.20;99.90
14016;DHT22;7083;48.854;9.158;2023-03-05T05:13:28;3.20;99.90
14016;DHT22;7083;48.854;9.158;2023-03-05T05:15:55;3.20;99.90
14016;DHT22;7083;48.854;9.158;2023-03-05T05:18:22;3.10;99.90
14016;DHT22;7083;48.854;9.158;2023-03-05T05:20:49;3.10;99.90
14016;DHT22;7083;48.854;9.158;2023-03-05T05:23:17;3.10;99.90
14016;DHT22;7083;48.854;9.158;2023-03-05T05:25:43;3.10;99.90
14016;DHT22;7083;48.854;9.158;2023-03-05T05:28:12;3.00;99.90
14016;DHT22;7083;48.854;9.158;2023-03-05T05:30:38;3.00;99.90
14016;DHT22;7083;48.854;9.158;2023-03-05T05:33:05;3.00;99.90
14016;DHT22;7083;48.854;9.158;2023-03-05T05:35:32;2.90;99.90
14016;DHT22;7083;48.854;9.158;2023-03-05T05:37:58;2.90;99.90
14016;DHT22;7083;48.854;9.158;2023-03-05T05:40:25;2.90;99.90
14016;DHT22;7083;48.854;9.158;2023-03-05T05:42:52;2.90;99.90
14016;DHT22;7083;48.854;9.158;2023-03-05T05:45:20;2.90;99.90
14016;DHT22;7083;48.854;9.158;2023-03-05T05:47:46;2.90;99.90
14016;DHT22;7083;48.854;9.158;2023-03-05T05:50:13;2.90;99.90
14016;DHT22;7083;48.854;9.158;2023-03-05T05:52:40;3.00;99.90
14016;DHT22;7083;48.854;9.158;2023-03-05T05:55:08;2.90;99.90
14016;DHT22;7083;48.854;9.158;2023-03-05T05:57:35;3.00;99.90
14016;DHT22;7083;48.854;9.158;2023-03-05T06:00:05;2.90;99.90
14016;DHT22;7083;48.854;9.158;2023-03-05T06:02:33;2.90;99.90
14016;DHT22;7083;48.854;9.158;2023-03-05T06:05:03;2.90;99.90
14016;DHT22;7083;48.854;9.158;2023-03-05T06:07:29;2.90;99.90
14016;DHT22;7083;48.854;9.158;2023-03-05T06:09:57;3.00;99.90
14016;DHT22;7083;48.854;9.158;2023-03-05T06:12:24;3.00;99.90
14016;DHT22;7083;48.854;9.158;2023-03-05T06:14:50;3.00;99.90
14016;DHT22;7083;48.854;9.158;2023-03-05T06:17:18;3.00;99.90
14016;DHT22;7083;48.854;9.158;2023-03-05T06:19:46;3.00;99.90
14016;DHT22;7083;48.854;9.158;2023-03-05T06:22:13;3.00;99.90
14016;DHT22;7083;48.854;9.158;2023-03-05T06:24:39;3.10;99.90
14016;DHT22;7083;48.854;9.158;2023-03-05T06:27:06;3.00;99.90
14016;DHT22;7083;48.854;9.158;2023-03-05T06:29:33;3.00;99.90
14016;DHT22;7083;48.854;9.158;2023-03-05T06:31:59;3.00;99.90
14016;DHT22;7083;48.854;9.158;2023-03-05T06:34:26;2.90;99.90
14016;DHT22;7083;48.854;9.158;2023-03-05T06:36:54;2.90;99.90
14016;DHT22;7083;48.854;9.158;2023-03-05T06:39:21;3.00;99.90
14016;DHT22;7083;48.854;9.158;2023-03-05T06:41:50;3.00;99.90
14016;DHT22;7083;48.854;9.158;2023-03-05T06:44:17;3.00;99.90
14016;DHT22;7083;48.854;9.158;2023-03-05T06:46:43;3.00;99.90
14016;DHT22;7083;48.854;9.158;2023-03-05T06:49:10;3.00;99.90
14016;DHT22;7083;48.854;9.158;2023-03-05T06:51:38;3.00;99.90
14016;DHT22;7083;48.854;9.158;2023-03-05T06:54:08;3.00;99.90
14016;DHT22;7083;48.854;9.158;2023-03-05T06:56:36;3.00;99.90
14016;DHT22;7083;48.854;9.158;2023-03-05T06:59:03;3.10;99.90
14016;DHT22;7083;48.854;9.158;2023-03-05T07:01:30;3.10;99.90
14016;DHT22;7083;48.854;9.158;2023-03-05T07:03:57;3.10;99.90
14016;DHT22;7083;48.854;9.158;2023-03-05T07:06:25;3.10;99.90
14016;DHT22;7083;48.854;9.158;2023-03-05T07:08:53;3.20;99.90
14016;DHT22;7083;48.854;9.158;2023-03-05T07:11:22;3.20;99.90
14016;DHT22;7083;48.854;9.158;2023-03-05T07:13:49;4.10;99.90
14016;DHT22;7083;48.854;9.158;2023-03-05T07:16:18;3.20;99.90
14016;DHT22;7083;48.854;9.158;2023-03-05T07:18:45;3.20;99.90
14016;DHT22;7083;48.854;9.158;2023-03-05T07:21:15;3.20;99.90
14016;DHT22;7083;48.854;9.158;2023-03-05T07:23:42;3.20;99.90
14016;DHT22;7083;48.854;9.158;2023-03-05T07:26:10;3.30;99.90
14016;DHT22;7083;48.854;9.158;2023-03-05T07:28:38;3.40;99.90
14016;DHT22;7083;48.854;9.158;2023-03-05T07:31:06;3.40;99.90
14016;DHT22;7083;48.854;9.158;2023-03-05T07:33:33;3.40;99.90
14016;DHT22;7083;48.854;9.158;2023-03-05T07:36:02;3.40;99.90
14016;DHT22;7083;48.854;9.158;2023-03-05T07:38:29;3.50;99.90
14016;DHT22;7083;48.854;9.158;2023-03-05T07:40:56;3.50;99.90
14016;DHT22;7083;48.854;9.158;2023-03-05T07:43:27;3.50;99.90
14016;DHT22;7083;48.854;9.158;2023-03-05T07:45:55;3.60;99.90
14016;DHT22;7083;48.854;9.158;2023-03-05T07:48:22;3.60;99.90
14016;DHT22;7083;48.854;9.158;2023-03-05T07:50:49;3.70;99.90
14016;DHT22;7083;48.854;9.158;2023-03-05T07:53:16;3.70;99.90
14016;DHT22;7083;48.854;9.158;2023-03-05T07:55:43;3.70;99.90
14016;DHT22;7083;48.854;9.158;2023-03-05T07:58:10;3.80;99.90
14016;DHT22;7083;48.854;9.158;2023-03-05T08:00:36;3.80;99.90
14016;DHT22;7083;48.854;9.158;2023-03-05T08:03:05;3.80;99.90
14016;DHT22;7083;48.854;9.158;2023-03-05T08:05:32;3.90;99.90
14016;DHT22;7083;48.854;9.158;2023-03-05T08:07:59;3.90;99.90
14016;DHT22;7083;48.854;9.158;2023-03-05T08:10:26;3.90;99.90
14016;DHT22;7083;48.854;9.158;2023-03-05T08:12:52;3.90;99.90
14016;DHT22;7083;48.854;9.158;2023-03-05T08:15:19;3.90;99.90
14016;DHT22;7083;48.854;9.158;2023-03-05T08:17:46;3.90;99.90
14016;DHT22;7083;48.854;9.158;2023-03-05T08:20:14;4.40;99.90
14016;DHT22;7083;48.854;9.158;2023-03-05T08:22:40;4.00;99.90
14016;DHT22;7083;48.854;9.158;2023-03-05T08:25:08;4.10;99.90
14016;DHT22;7083;48.854;9.158;2023-03-05T08:27:38;4.10;99.90
14016;DHT22;7083;48.854;9.158;2023-03-05T08:30:06;4.10;99.90
14016;DHT22;7083;48.854;9.158;2023-03-05T08:32:33;4.20;99.90
14016;DHT22;7083;48.854;9.158;2023-03-05T08:34:59;4.30;99.90
14016;DHT22;7083;48.854;9.158;2023-03-05T08:37:28;4.30;99.90
14016;DHT22;7083;48.854;9.158;2023-03-05T08:39:55;4.30;99.90
14016;DHT22;7083;48.854;9.158;2023-03-05T08:42:22;4.40;99.90
14016;DHT22;7083;48.854;9.158;2023-03-05T08:44:49;4.40;99.90
14016;DHT22;7083;48.854;9.158;2023-03-05T08:47:16;5.10;99.90
14016;DHT22;7083;48.854;9.158;2023-03-05T08:49:45;4.40;99.90
14016;DHT22;7083;48.854;9.158;2023-03-05T08:52:11;4.50;99.90
14016;DHT22;7083;48.854;9.158;2023-03-05T08:54:39;4.50;99.90
14016;DHT22;7083;48.854;9.158;2023-03-05T08:57:06;4.60;99.90
14016;DHT22;7083;48.854;9.158;2023-03-05T08:59:33;4.70;99.90
14016;DHT22;7083;48.854;9.158;2023-03-05T09:02:00;4.70;99.90
14016;DHT22;7083;48.854;9.158;2023-03-05T09:04:27;4.70;99.90
14016;DHT22;7083;48.854;9.158;2023-03-05T09:06:53;7.10;99.90
14016;DHT22;7083;48.854;9.158;2023-03-05T09:09:20;4.90;99.90
14016;DHT22;7083;48.854;9.158;2023-03-05T09:11:48;4.90;99.90
14016;DHT22;7083;48.854;9.158;2023-03-05T09:14:16;4.90;99.90
14016;DHT22;7083;48.854;9.158;2023-03-05T09:16:43;5.10;99.90
14016;DHT22;7083;48.854;9.158;2023-03-05T09:19:10;5.10;99.90
14016;DHT22;7083;48.854;9.158;2023-03-05T09:21:37;5.20;99.90
14016;DHT22;7083;48.854;9.158;2023-03-05T09:24:04;5.30;99.20
14016;DHT22;7083;48.854;9.158;2023-03-05T09:26:31;5.30;98.70
14016;DHT22;7083;48.854;9.158;2023-03-05T09:28:59;5.30;98.40
14016;DHT22;7083;48.854;9.158;2023-03-05T09:31:26;5.30;98.10
14016;DHT22;7083;48.854;9.158;2023-03-05T09:33:52;5.30;97.80
14016;DHT22;7083;48.854;9.158;2023-03-05T09:36:21;5.30;97.20
14016;DHT22;7083;48.854;9.158;2023-03-05T09:38:48;5.30;97.50
14016;DHT22;7083;48.854;9.158;2023-03-05T09:41:23;5.40;97.00
14016;DHT22;7083;48.854;9.158;2023-03-05T09:44:01;5.50;96.80
14016;DHT22;7083;48.854;9.158;2023-03-05T09:46:42;5.50;97.20
14016;DHT22;7083;48.854;9.158;2023-03-05T09:49:16;5.50;97.50
14016;DHT22;7083;48.854;9.158;2023-03-05T09:51:44;5.60;96.90
14016;DHT22;7083;48.854;9.158;2023-03-05T09:54:14;5.60;96.40
14016;DHT22;7083;48.854;9.158;2023-03-05T09:56:45;5.60;96.30
14016;DHT22;7083;48.854;9.158;2023-03-05T09:59:20;5.60;96.20
14016;DHT22;7083;48.854;9.158;2023-03-05T10:01:49;5.50;96.20
14016;DHT22;7083;48.854;9.158;2023-03-05T10:04:21;5.40;96.30
14016;DHT22;7083;48.854;9.158;2023-03-05T10:06:52;5.40;96.70
14016;DHT22;7083;48.854;9.158;2023-03-05T10:09:34;5.30;96.30
14016;DHT22;7083;48.854;9.158;2023-03-05T10:12:09;5.20;96.40
14016;DHT22;7083;48.854;9.158;2023-03-05T10:14:40;5.20;96.60
14016;DHT22;7083;48.854;9.158;2023-03-05T10:17:32;5.20;96.90
14016;DHT22;7083;48.854;9.158;2023-03-05T10:20:17;5.20;97.00
14016;DHT22;7083;48.854;9.158;2023-03-05T10:22:59;5.10;97.50
14016;DHT22;7083;48.854;9.158;2023-03-05T10:25:39;5.10;97.30
14016;DHT22;7083;48.854;9.158;2023-03-05T10:28:11;5.10;97.20
14016;DHT22;7083;48.854;9.158;2023-03-05T10:30:55;5.10;97.60
14016;DHT22;7083;48.854;9.158;2023-03-05T10:33:29;5.10;97.70
14016;DHT22;7083;48.854;9.158;2023-03-05T10:36:26;5.20;97.90
14016;DHT22;7083;48.854;9.158;2023-03-05T10:39:23;5.20;98.40
14016;DHT22;7083;48.854;9.158;2023-03-05T10:42:04;5.30;97.90
14016;DHT22;7083;48.854;9.158;2023-03-05T10:44:35;5.40;97.10
14016;DHT22;7083;48.854;9.158;2023-03-05T10:47:11;5.50;97.10
14016;DHT22;7083;48.854;9.158;2023-03-05T10:49:47;5.60;97.30
14016;DHT22;7083;48.854;9.158;2023-03-05T10:52:17;5.60;97.20
14016;DHT22;7083;48.854;9.158;2023-03-05T10:54:44;5.60;97.10
14016;DHT22;7083;48.854;9.158;2023-03-05T10:57:17;5.50;96.80
14016;DHT22;7083;48.854;9.158;2023-03-05T10:59:48;5.50;97.00
14016;DHT22;7083;48.854;9.158;2023-03-05T11:02:17;5.50;96.90
14016;DHT22;7083;48.854;9.158;2023-03-05T11:04:44;5.40;96.70
14016;DHT22;7083;48.854;9.158;2023-03-05T11:07:35;5.30;97.10
14016;DHT22;7083;48.854;9.158;2023-03-05T11:10:20;5.20;97.30
14016;DHT22;7083;48.854;9.158;2023-03-05T11:12:47;5.20;97.50
14016;DHT22;7083;48.854;9.158;2023-03-05T11:15:27;5.20;97.50
14016;DHT22;7083;48.854;9.158;2023-03-05T11:18:17;5.30;96.70
14016;DHT22;7083;48.854;9.158;2023-03-05T11:20:45;5.20;96.50
14016;DHT22;7083;48.854;9.158;2023-03-05T11:23:13;5.20;96.70
14016;DHT22;7083;48.854;9.158;2023-03-05T11:25:52;5.10;97.10
14016;DHT22;7083;48.854;9.158;2023-03-05T11:28:22;5.10;97.70
14016;DHT22;7083;48.854;9.158;2023-03-05T11:33:54;5.30;97.90
14016;DHT22;7083;48.854;9.158;2023-03-05T11:36:29;5.50;98.00
14016;DHT22;7083;48.854;9.158;2023-03-05T11:38:57;5.60;97.20
14016;DHT22;7083;48.854;9.158;2023-03-05T11:41:30;5.80;95.90
14016;DHT22;7083;48.854;9.158;2023-03-05T11:44:00;5.80;95.00
14016;DHT22;7083;48.854;9.158;2023-03-05T11:46:41;5.80;94.70
14016;DHT22;7083;48.854;9.158;2023-03-05T11:49:14;5.90;94.80
14016;DHT22;7083;48.854;9.158;2023-03-05T11:51:44;5.90;94.30
14016;DHT22;7083;48.854;9.158;2023-03-05T11:54:18;5.90;93.90
14016;DHT22;7083;48.854;9.158;2023-03-05T11:56:46;5.80;94.10
14016;DHT22;7083;48.854;9.158;2023-03-05T11:59:16;5.90;94.10
14016;DHT22;7083;48.854;9.158;2023-03-05T12:01:45;5.80;94.40
14016;DHT22;7083;48.854;9.158;2023-03-05T12:04:14;5.90;94.40
14016;DHT22;7083;48.854;9.158;2023-03-05T12:06:44;5.90;93.90
14016;DHT22;7083;48.854;9.158;2023-03-05T12:09:17;6.00;93.70
14016;DHT22;7083;48.854;9.158;2023-03-05T12:11:47;5.90;93.80
14016;DHT22;7083;48.854;9.158;2023-03-05T12:14:20;5.90;93.90
14016;DHT22;7083;48.854;9.158;2023-03-05T12:16:52;5.90;93.40
14016;DHT22;7083;48.854;9.158;2023-03-05T12:19:39;5.90;93.40
14016;DHT22;7083;48.854;9.158;2023-03-05T12:22:15;5.80;93.60
14016;DHT22;7083;48.854;9.158;2023-03-05T12:24:42;5.80;94.30
14016;DHT22;7083;48.854;9.158;2023-03-05T12:27:12;5.70;94.10
14016;DHT22;7083;48.854;9.158;2023-03-05T12:29:43;5.80;93.70
14016;DHT22;7083;48.854;9.158;2023-03-05T12:35:32;5.70;93.60
14016;DHT22;7083;48.854;9.158;2023-03-05T12:38:17;5.80;93.80
14016;DHT22;7083;48.854;9.158;2023-03-05T12:40:44;5.80;94.00
14016;DHT22;7083;48.854;9.158;2023-03-05T12:43:28;5.90;93.30
14016;DHT22;7083;48.854;9.158;2023-03-05T12:46:23;5.90;93.30
14016;DHT22;7083;48.854;9.158;2023-03-05T12:48:50;5.90;93.60
14016;DHT22;7083;48.854;9.158;2023-03-05T12:51:30;6.10;93.20
14016;DHT22;7083;48.854;9.158;2023-03-05T12:54:23;6.10;93.10
14016;DHT22;7083;48.854;9.158;2023-03-05T12:56:52;6.00;93.10
14016;DHT22;7083;48.854;9.158;2023-03-05T12:59:22;6.00;93.10
14016;DHT22;7083;48.854;9.158;2023-03-05T13:01:54;6.10;92.80
14016;DHT22;7083;48.854;9.158;2023-03-05T13:04:25;6.00;92.90
14016;DHT22;7083;48.854;9.158;2023-03-05T13:07:01;5.50;92.80
14016;DHT22;7083;48.854;9.158;2023-03-05T13:09:30;6.10;92.60
14016;DHT22;7083;48.854;9.158;2023-03-05T13:11:59;6.00;92.30
14016;DHT22;7083;48.854;9.158;2023-03-05T13:14:31;6.00;92.40
14016;DHT22;7083;48.854;9.158;2023-03-05T13:16:59;5.90;92.60
14016;DHT22;7083;48.854;9.158;2023-03-05T13:19:26;5.80;92.80
14016;DHT22;7083;48.854;9.158;2023-03-05T13:21:57;5.90;92.40
14016;DHT22;7083;48.854;9.158;2023-03-05T13:24:25;5.80;92.30
14016;DHT22;7083;48.854;9.158;2023-03-05T13:26:53;5.60;92.60
14016;DHT22;7083;48.854;9.158;2023-03-05T13:29:21;5.50;93.00
14016;DHT22;7083;48.854;9.158;2023-03-05T13:31:53;5.40;93.30
14016;DHT22;7083;48.854;9.158;2023-03-05T13:34:22;5.40;93.40
14016;DHT22;7083;48.854;9.158;2023-03-05T13:36:54;5.40;93.40
14016;DHT22;7083;48.854;9.158;2023-03-05T13:39:25;5.40;93.60
14016;DHT22;7083;48.854;9.158;2023-03-05T13:42:01;5.40;93.80
14016;DHT22;7083;48.854;9.158;2023-03-05T13:44:29;5.40;93.20
14016;DHT22;7083;48.854;9.158;2023-03-05T13:47:15;5.40;93.30
14016;DHT22;7083;48.854;9.158;2023-03-05T13:49:42;5.40;93.50
14016;DHT22;7083;48.854;9.158;2023-03-05T13:52:10;5.40;93.80
14016;DHT22;7083;48.854;9.158;2023-03-05T13:54:41;5.30;93.90
14016;DHT22;7083;48.854;9.158;2023-03-05T13:57:32;5.30;93.80
14016;DHT22;7083;48.854;9.158;2023-03-05T14:00:00;5.30;93.40
14016;DHT22;7083;48.854;9.158;2023-03-05T14:02:28;5.30;93.50
14016;DHT22;7083;48.854;9.158;2023-03-05T14:04:55;5.20;93.70
14016;DHT22;7083;48.854;9.158;2023-03-05T14:07:28;5.20;93.90
14016;DHT22;7083;48.854;9.158;2023-03-05T14:09:56;5.10;94.30
14016;DHT22;7083;48.854;9.158;2023-03-05T14:12:27;5.00;94.70
14016;DHT22;7083;48.854;9.158;2023-03-05T14:14:55;5.00;94.90
14016;DHT22;7083;48.854;9.158;2023-03-05T14:17:37;5.00;95.10
14016;DHT22;7083;48.854;9.158;2023-03-05T14:20:22;4.90;95.10
14016;DHT22;7083;48.854;9.158;2023-03-05T14:22:51;4.90;95.30
14016;DHT22;7083;48.854;9.158;2023-03-05T14:25:34;4.90;95.20
14016;DHT22;7083;48.854;9.158;2023-03-05T14:28:05;4.90;95.50
14016;DHT22;7083;48.854;9.158;2023-03-05T14:30:32;4.90;95.80
14016;DHT22;7083;48.854;9.158;2023-03-05T14:33:02;4.90;95.90
14016;DHT22;7083;48.854;9.158;2023-03-05T14:35:30;4.80;95.80
14016;DHT22;7083;48.854;9.158;2023-03-05T14:37:58;4.80;95.80
14016;DHT22;7083;48.854;9.158;2023-03-05T14:40:30;4.90;95.80
14016;DHT22;7083;48.854;9.158;2023-03-05T14:42:57;4.80;95.90
14016;DHT22;7083;48.854;9.158;2023-03-05T14:45:27;4.80;96.00
14016;DHT22;7083;48.854;9.158;2023-03-05T14:47:55;4.90;95.60
14016;DHT22;7083;48.854;9.158;2023-03-05T14:50:25;4.90;95.50
14016;DHT22;7083;48.854;9.158;2023-03-05T14:52:55;4.90;95.60
14016;DHT22;7083;48.854;9.158;2023-03-05T14:55:23;4.80;95.60
14016;DHT22;7083;48.854;9.158;2023-03-05T14:57:53;4.70;95.90
14016;DHT22;7083;48.854;9.158;2023-03-05T15:00:23;4.70;95.90
14016;DHT22;7083;48.854;9.158;2023-03-05T15:02:50;4.70;96.00
14016;DHT22;7083;48.854;9.158;2023-03-05T15:05:18;4.60;96.40
14016;DHT22;7083;48.854;9.158;2023-03-05T15:07:46;4.60;96.70
14016;DHT22;7083;48.854;9.158;2023-03-05T15:10:14;4.50;96.70
14016;DHT22;7083;48.854;9.158;2023-03-05T15:12:41;4.50;96.90
14016;DHT22;7083;48.854;9.158;2023-03-05T15:15:11;4.50;97.10
14016;DHT22;7083;48.854;9.158;2023-03-05T15:17:40;4.50;97.10
14016;DHT22;7083;48.854;9.158;2023-03-05T15:20:13;4.50;97.20
14016;DHT22;7083;48.854;9.158;2023-03-05T15:22:40;4.40;97.40
14016;DHT22;7083;48.854;9.158;2023-03-05T15:25:08;4.40;97.50
14016;DHT22;7083;48.854;9.158;2023-03-05T15:27:35;4.40;97.50
14016;DHT22;7083;48.854;9.158;2023-03-05T15:30:02;4.30;97.50
14016;DHT22;7083;48.854;9.158;2023-03-05T15:32:29;4.30;97.60
14016;DHT22;7083;48.854;9.158;2023-03-05T15:34:57;4.20;97.60
14016;DHT22;7083;48.854;9.158;2023-03-05T15:37:24;4.20;97.70
14016;DHT22;7083;48.854;9.158;2023-03-05T15:39:51;4.20;97.80
14016;DHT22;7083;48.854;9.158;2023-03-05T15:42:19;4.20;97.80
14016;DHT22;7083;48.854;9.158;2023-03-05T15:44:46;4.10;97.90
14016;DHT22;7083;48.854;9.158;2023-03-05T15:47:12;4.10;97.90
14016;DHT22;7083;48.854;9.158;2023-03-05T15:49:39;4.10;98.00
14016;DHT22;7083;48.854;9.158;2023-03-05T15:52:06;4.10;98.20
14016;DHT22;7083;48.854;9.158;2023-03-05T15:54:34;4.10;98.30
14016;DHT22;7083;48.854;9.158;2023-03-05T15:57:01;4.10;98.40
14016;DHT22;7083;48.854;9.158;2023-03-05T15:59:29;4.00;98.40
14016;DHT22;7083;48.854;9.158;2023-03-05T16:01:55;4.00;98.50
14016;DHT22;7083;48.854;9.158;2023-03-05T16:04:22;4.00;98.70
14016;DHT22;7083;48.854;9.158;2023-03-05T16:06:49;4.00;98.80
14016;DHT22;7083;48.854;9.158;2023-03-05T16:09:17;4.00;98.80
14016;DHT22;7083;48.854;9.158;2023-03-05T16:11:45;4.00;99.00
14016;DHT22;7083;48.854;9.158;2023-03-05T16:14:13;3.90;99.00
14016;DHT22;7083;48.854;9.158;2023-03-05T16:16:43;3.90;99.10
14016;DHT22;7083;48.854;9.158;2023-03-05T16:19:11;3.90;99.20
14016;DHT22;7083;48.854;9.158;2023-03-05T16:21:38;3.90;99.30